Terminal Aerodrome Forecast
Issued by NWS

Current Version | Previous Version | Text Only | Print | Product List | Glossary On
Versions: 1 2 3 4 5 6 7 8 9 10 11 12 13 14 15 16 17 18 19 20 21 22 23 24 25 26 27 28 29 30 31 32 33 34 35
000 FTUS41 KOKX 271342 AAA TAFHPN TAF AMD KHPN 271342Z 2714/2812 VRB03KT P6SM FEW250 FM271600 28006KT P6SM FEW070 FEW250 FM272200 18006KT P6SM FEW070 FEW250 FM280000 20005KT P6SM SCT250 FM280200 VRB03KT P6SM SCT250 AMD NOT SKED=

USA.gov is the U.S. government's official web portal to all federal, state and local government web resources and services.